sensor_id;sensor_type;location;lat;lon;timestamp;pressure;altitude;pressure_sealevel;temperature;humidity
55604;BME280;41468;48.838;9.330;2023-12-20T00:00:36;98338.16;;;6.45;92.77
55604;BME280;41468;48.838;9.330;2023-12-20T00:03:04;98352.84;;;6.44;92.65
55604;BME280;41468;48.838;9.330;2023-12-20T00:05:31;98343.13;;;6.43;92.73
55604;BME280;41468;48.838;9.330;2023-12-20T00:08:02;98352.03;;;6.44;92.71
55604;BME280;41468;48.838;9.330;2023-12-20T00:10:29;98349.13;;;6.49;94.15
55604;BME280;41468;48.838;9.330;2023-12-20T00:12:56;98332.03;;;6.36;94.25
55604;BME280;41468;48.838;9.330;2023-12-20T00:15:23;98341.06;;;6.52;94.60
55604;BME280;41468;48.838;9.330;2023-12-20T00:17:49;98331.13;;;6.44;94.98
55604;BME280;41468;48.838;9.330;2023-12-20T00:20:16;98330.03;;;6.45;95.36
55604;BME280;41468;48.838;9.330;2023-12-20T00:22:43;98327.97;;;6.42;96.44
55604;BME280;41468;48.838;9.330;2023-12-20T00:25:10;98321.88;;;6.45;96.79
55604;BME280;41468;48.838;9.330;2023-12-20T00:27:37;98319.97;;;6.46;96.93
55604;BME280;41468;48.838;9.330;2023-12-20T00:30:04;98320.53;;;6.51;96.76
55604;BME280;41468;48.838;9.330;2023-12-20T00:32:31;98326.06;;;6.43;97.88
55604;BME280;41468;48.838;9.330;2023-12-20T00:34:58;98316.09;;;6.47;98.18
55604;BME280;41468;48.838;9.330;2023-12-20T00:37:24;98321.44;;;6.43;97.91
55604;BME280;41468;48.838;9.330;2023-12-20T00:39:51;98320.75;;;6.46;98.73
55604;BME280;41468;48.838;9.330;2023-12-20T00:42:18;98309.44;;;6.44;99.31
55604;BME280;41468;48.838;9.330;2023-12-20T00:44:45;98316.22;;;6.38;99.66
55604;BME280;41468;48.838;9.330;2023-12-20T00:47:12;98311.94;;;6.37;100.00
55604;BME280;41468;48.838;9.330;2023-12-20T00:49:39;98317.38;;;6.37;100.00
55604;BME280;41468;48.838;9.330;2023-12-20T00:52:11;98311.94;;;6.37;100.00
55604;BME280;41468;48.838;9.330;2023-12-20T00:54:37;98308.53;;;6.28;100.00
55604;BME280;41468;48.838;9.330;2023-12-20T00:57:04;98311.25;;;6.28;100.00
55604;BME280;41468;48.838;9.330;2023-12-20T00:59:31;98310.94;;;6.29;100.00
55604;BME280;41468;48.838;9.330;2023-12-20T01:01:58;98316.22;;;6.26;100.00
55604;BME280;41468;48.838;9.330;2023-12-20T01:04:25;98321.22;;;6.24;100.00
55604;BME280;41468;48.838;9.330;2023-12-20T01:06:52;98316.00;;;6.18;100.00
55604;BME280;41468;48.838;9.330;2023-12-20T01:09:19;98322.88;;;6.16;100.00
55604;BME280;41468;48.838;9.330;2023-12-20T01:11:46;98323.44;;;6.09;100.00
55604;BME280;41468;48.838;9.330;2023-12-20T01:14:13;98321.53;;;6.22;100.00
55604;BME280;41468;48.838;9.330;2023-12-20T01:16:39;98318.94;;;6.13;100.00
55604;BME280;41468;48.838;9.330;2023-12-20T01:19:06;98335.19;;;6.13;100.00
55604;BME280;41468;48.838;9.330;2023-12-20T01:21:33;98326.16;;;6.09;100.00
55604;BME280;41468;48.838;9.330;2023-12-20T01:24:00;98335.88;;;6.10;100.00
55604;BME280;41468;48.838;9.330;2023-12-20T01:26:26;98331.91;;;6.08;100.00
55604;BME280;41468;48.838;9.330;2023-12-20T01:28:54;98337.19;;;6.04;100.00
55604;BME280;41468;48.838;9.330;2023-12-20T01:31:20;98334.97;;;6.06;100.00
55604;BME280;41468;48.838;9.330;2023-12-20T01:33:47;98336.88;;;6.06;100.00
55604;BME280;41468;48.838;9.330;2023-12-20T01:36:14;98346.59;;;6.07;100.00
55604;BME280;41468;48.838;9.330;2023-12-20T01:38:41;98339.28;;;6.07;100.00
55604;BME280;41468;48.838;9.330;2023-12-20T01:41:08;98348.63;;;5.97;100.00
55604;BME280;41468;48.838;9.330;2023-12-20T01:43:34;98351.22;;;5.94;100.00
55604;BME280;41468;48.838;9.330;2023-12-20T01:46:16;98358.47;;;6.02;100.00
55604;BME280;41468;48.838;9.330;2023-12-20T01:48:44;98347.41;;;6.07;100.00
55604;BME280;41468;48.838;9.330;2023-12-20T01:51:11;98339.69;;;6.09;100.00
55604;BME280;41468;48.838;9.330;2023-12-20T01:53:42;98349.88;;;6.00;100.00
55604;BME280;41468;48.838;9.330;2023-12-20T01:56:10;98357.41;;;5.94;100.00
55604;BME280;41468;48.838;9.330;2023-12-20T01:58:43;98356.06;;;6.01;100.00
55604;BME280;41468;48.838;9.330;2023-12-20T02:01:11;98351.84;;;5.91;100.00
55604;BME280;41468;48.838;9.330;2023-12-20T02:03:40;98349.34;;;5.86;100.00
55604;BME280;41468;48.838;9.330;2023-12-20T02:06:09;98341.44;;;5.93;100.00
55604;BME280;41468;48.838;9.330;2023-12-20T02:08:36;98341.44;;;5.93;100.00
55604;BME280;41468;48.838;9.330;2023-12-20T02:11:03;98338.09;;;5.96;100.00
55604;BME280;41468;48.838;9.330;2023-12-20T02:13:30;98339.88;;;5.92;100.00
55604;BME280;41468;48.838;9.330;2023-12-20T02:15:57;98335.91;;;5.89;100.00
55604;BME280;41468;48.838;9.330;2023-12-20T02:18:24;98336.19;;;5.96;100.00
55604;BME280;41468;48.838;9.330;2023-12-20T02:20:51;98337.19;;;6.04;100.00
55604;BME280;41468;48.838;9.330;2023-12-20T02:23:18;98346.22;;;5.96;100.00
55604;BME280;41468;48.838;9.330;2023-12-20T02:25:46;98338.25;;;6.00;100.00
55604;BME280;41468;48.838;9.330;2023-12-20T02:28:13;98335.06;;;6.10;100.00
55604;BME280;41468;48.838;9.330;2023-12-20T02:30:40;98331.50;;;6.18;100.00
55604;BME280;41468;48.838;9.330;2023-12-20T02:33:17;98344.91;;;6.02;100.00
55604;BME280;41468;48.838;9.330;2023-12-20T02:35:44;98341.81;;;5.91;100.00
55604;BME280;41468;48.838;9.330;2023-12-20T02:38:11;98350.72;;;5.92;100.00
55604;BME280;41468;48.838;9.330;2023-12-20T02:40:38;98348.22;;;5.87;100.00
55604;BME280;41468;48.838;9.330;2023-12-20T02:43:16;98345.72;;;5.82;100.00
55604;BME280;41468;48.838;9.330;2023-12-20T02:45:43;98340.78;;;5.84;100.00
55604;BME280;41468;48.838;9.330;2023-12-20T02:48:10;98347.97;;;5.80;100.00
55604;BME280;41468;48.838;9.330;2023-12-20T02:50:37;98347.75;;;5.72;100.00
55604;BME280;41468;48.838;9.330;2023-12-20T02:53:03;98348.63;;;5.76;100.00
55604;BME280;41468;48.838;9.330;2023-12-20T02:55:30;98351.47;;;5.80;100.00
55604;BME280;41468;48.838;9.330;2023-12-20T02:57:57;98339.16;;;5.83;100.00
55604;BME280;41468;48.838;9.330;2023-12-20T03:00:24;98333.09;;;5.86;100.00
55604;BME280;41468;48.838;9.330;2023-12-20T03:02:51;98343.69;;;5.91;100.00
55604;BME280;41468;48.838;9.330;2023-12-20T03:05:18;98342.44;;;5.88;100.00
55604;BME280;41468;48.838;9.330;2023-12-20T03:07:44;98355.22;;;5.88;100.00
55604;BME280;41468;48.838;9.330;2023-12-20T03:10:12;98358.84;;;5.92;100.00
55604;BME280;41468;48.838;9.330;2023-12-20T03:12:49;98350.72;;;5.92;100.00
55604;BME280;41468;48.838;9.330;2023-12-20T03:15:16;98356.41;;;5.99;100.00
55604;BME280;41468;48.838;9.330;2023-12-20T03:17:43;98355.75;;;6.02;100.00
55604;BME280;41468;48.838;9.330;2023-12-20T03:20:10;98359.09;;;5.99;100.00
55604;BME280;41468;48.838;9.330;2023-12-20T03:22:37;98373.59;;;6.03;100.00
55604;BME280;41468;48.838;9.330;2023-12-20T03:25:04;98365.69;;;6.10;100.00
55604;BME280;41468;48.838;9.330;2023-12-20T03:27:31;98369.97;;;6.11;100.00
55604;BME280;41468;48.838;9.330;2023-12-20T03:29:58;98368.53;;;6.14;100.00
55604;BME280;41468;48.838;9.330;2023-12-20T03:32:25;98368.28;;;6.07;100.00
55604;BME280;41468;48.838;9.330;2023-12-20T03:34:52;98375.41;;;6.11;100.00
55604;BME280;41468;48.838;9.330;2023-12-20T03:37:19;98368.16;;;6.03;100.00
55604;BME280;41468;48.838;9.330;2023-12-20T03:39:46;98365.34;;;6.12;100.00
55604;BME280;41468;48.838;9.330;2023-12-20T03:42:12;98367.47;;;6.06;100.00
55604;BME280;41468;48.838;9.330;2023-12-20T03:44:39;98371.09;;;5.98;100.00
55604;BME280;41468;48.838;9.330;2023-12-20T03:47:09;98369.84;;;5.95;100.00
55604;BME280;41468;48.838;9.330;2023-12-20T03:49:36;98367.91;;;5.96;100.00
55604;BME280;41468;48.838;9.330;2023-12-20T03:52:04;98374.66;;;5.90;100.00
55604;BME280;41468;48.838;9.330;2023-12-20T03:54:31;98382.09;;;5.93;100.00
55604;BME280;41468;48.838;9.330;2023-12-20T03:56:58;98382.31;;;5.88;100.00
55604;BME280;41468;48.838;9.330;2023-12-20T03:59:25;98377.97;;;5.74;100.00
55604;BME280;41468;48.838;9.330;2023-12-20T04:01:51;98373.91;;;5.68;100.00
55604;BME280;41468;48.838;9.330;2023-12-20T04:04:18;98374.69;;;5.69;100.00
55604;BME280;41468;48.838;9.330;2023-12-20T04:06:45;98380.38;;;5.76;100.00
55604;BME280;41468;48.838;9.330;2023-12-20T04:09:12;98372.34;;;5.67;100.00
55604;BME280;41468;48.838;9.330;2023-12-20T04:11:39;98383.94;;;5.68;100.00
55604;BME280;41468;48.838;9.330;2023-12-20T04:14:17;98385.66;;;5.72;100.00
55604;BME280;41468;48.838;9.330;2023-12-20T04:16:44;98385.00;;;5.75;100.00
55604;BME280;41468;48.838;9.330;2023-12-20T04:19:13;98383.47;;;5.66;100.00
55604;BME280;41468;48.838;9.330;2023-12-20T04:21:40;98374.78;;;5.60;100.00
55604;BME280;41468;48.838;9.330;2023-12-20T04:24:07;98381.13;;;5.64;100.00
55604;BME280;41468;48.838;9.330;2023-12-20T04:26:34;98380.09;;;5.69;100.00
55604;BME280;41468;48.838;9.330;2023-12-20T04:29:01;98387.13;;;5.70;100.00
55604;BME280;41468;48.838;9.330;2023-12-20T04:31:28;98390.81;;;5.65;100.00
55604;BME280;41468;48.838;9.330;2023-12-20T04:34:00;98389.09;;;5.61;100.00
55604;BME280;41468;48.838;9.330;2023-12-20T04:36:27;98405.28;;;5.69;100.00
55604;BME280;41468;48.838;9.330;2023-12-20T04:38:56;98404.25;;;5.62;100.00
55604;BME280;41468;48.838;9.330;2023-12-20T04:41:23;98389.38;;;5.68;100.00
55604;BME280;41468;48.838;9.330;2023-12-20T04:43:49;98404.16;;;5.70;100.00
55604;BME280;41468;48.838;9.330;2023-12-20T04:46:16;98408.72;;;5.79;100.00
55604;BME280;41468;48.838;9.330;2023-12-20T04:48:43;98416.38;;;5.76;100.00
55604;BME280;41468;48.838;9.330;2023-12-20T04:51:10;98424.03;;;5.74;100.00
55604;BME280;41468;48.838;9.330;2023-12-20T04:53:37;98419.09;;;5.76;100.00
55604;BME280;41468;48.838;9.330;2023-12-20T04:56:04;98418.97;;;5.73;100.00
55604;BME280;41468;48.838;9.330;2023-12-20T04:58:30;98415.69;;;5.67;100.00
55604;BME280;41468;48.838;9.330;2023-12-20T05:00:57;98417.25;;;5.68;100.00
55604;BME280;41468;48.838;9.330;2023-12-20T05:03:24;98418.59;;;5.62;100.00
55604;BME280;41468;48.838;9.330;2023-12-20T05:05:51;98410.09;;;5.64;100.00
55604;BME280;41468;48.838;9.330;2023-12-20T05:08:17;98426.75;;;5.74;100.00
55604;BME280;41468;48.838;9.330;2023-12-20T05:10:44;98421.69;;;5.73;100.00
55604;BME280;41468;48.838;9.330;2023-12-20T05:13:11;98426.50;;;5.67;100.00
55604;BME280;41468;48.838;9.330;2023-12-20T05:15:42;98418.19;;;5.72;100.00
55604;BME280;41468;48.838;9.330;2023-12-20T05:18:09;98431.19;;;5.58;100.00
55604;BME280;41468;48.838;9.330;2023-12-20T05:20:36;98428.63;;;5.62;100.00
55604;BME280;41468;48.838;9.330;2023-12-20T05:23:03;98439.31;;;5.58;100.00
55604;BME280;41468;48.838;9.330;2023-12-20T05:25:29;98439.13;;;5.63;100.00
55604;BME280;41468;48.838;9.330;2023-12-20T05:28:07;98440.00;;;5.55;100.00
55604;BME280;41468;48.838;9.330;2023-12-20T05:30:34;98430.72;;;5.56;100.00
55604;BME280;41468;48.838;9.330;2023-12-20T05:33:06;98435.13;;;5.48;100.00
55604;BME280;41468;48.838;9.330;2023-12-20T05:35:33;98437.00;;;5.48;100.00
55604;BME280;41468;48.838;9.330;2023-12-20T05:37:59;98446.97;;;5.56;100.00
55604;BME280;41468;48.838;9.330;2023-12-20T05:40:26;98441.72;;;5.60;100.00
55604;BME280;41468;48.838;9.330;2023-12-20T05:42:53;98445.47;;;5.67;100.00
55604;BME280;41468;48.838;9.330;2023-12-20T05:45:20;98455.56;;;5.58;100.00
55604;BME280;41468;48.838;9.330;2023-12-20T05:47:47;98453.34;;;5.60;100.00
55604;BME280;41468;48.838;9.330;2023-12-20T05:50:14;98461.66;;;5.55;100.00
55604;BME280;41468;48.838;9.330;2023-12-20T05:52:41;98466.56;;;5.62;100.00
55604;BME280;41468;48.838;9.330;2023-12-20T05:55:08;98475.78;;;5.61;100.00
55604;BME280;41468;48.838;9.330;2023-12-20T05:57:35;98470.66;;;5.68;100.00
55604;BME280;41468;48.838;9.330;2023-12-20T06:00:01;98476.84;;;5.68;100.00
55604;BME280;41468;48.838;9.330;2023-12-20T06:02:29;98480.69;;;5.67;100.00
55604;BME280;41468;48.838;9.330;2023-12-20T06:04:56;98483.41;;;5.67;100.00
55604;BME280;41468;48.838;9.330;2023-12-20T06:07:24;98487.69;;;5.68;100.00
55604;BME280;41468;48.838;9.330;2023-12-20T06:09:51;98496.00;;;5.63;100.00
55604;BME280;41468;48.838;9.330;2023-12-20T06:12:18;98492.03;;;5.61;100.00
55604;BME280;41468;48.838;9.330;2023-12-20T06:14:45;98505.13;;;5.59;100.00
55604;BME280;41468;48.838;9.330;2023-12-20T06:17:18;98499.84;;;5.62;100.00
55604;BME280;41468;48.838;9.330;2023-12-20T06:19:45;98501.91;;;5.65;100.00
55604;BME280;41468;48.838;9.330;2023-12-20T06:22:19;98495.53;;;5.61;100.00
55604;BME280;41468;48.838;9.330;2023-12-20T06:24:46;98497.25;;;5.66;100.00
55604;BME280;41468;48.838;9.330;2023-12-20T06:27:13;98488.06;;;5.58;100.00
55604;BME280;41468;48.838;9.330;2023-12-20T06:29:40;98491.72;;;5.62;100.00
55604;BME280;41468;48.838;9.330;2023-12-20T06:32:07;98503.25;;;6.34;100.00
55604;BME280;41468;48.838;9.330;2023-12-20T06:34:34;98501.66;;;6.00;100.00
55604;BME280;41468;48.838;9.330;2023-12-20T06:37:01;98505.19;;;5.92;100.00
55604;BME280;41468;48.838;9.330;2023-12-20T06:39:29;98518.59;;;5.97;100.00
55604;BME280;41468;48.838;9.330;2023-12-20T06:41:57;98512.41;;;5.88;100.00
55604;BME280;41468;48.838;9.330;2023-12-20T06:44:24;98512.41;;;5.88;100.00
55604;BME280;41468;48.838;9.330;2023-12-20T06:46:51;98513.06;;;5.85;100.00
55604;BME280;41468;48.838;9.330;2023-12-20T06:49:17;98510.69;;;5.83;100.00
55604;BME280;41468;48.838;9.330;2023-12-20T06:51:45;98523.91;;;5.85;100.00
55604;BME280;41468;48.838;9.330;2023-12-20T06:54:12;98524.56;;;5.82;100.00
55604;BME280;41468;48.838;9.330;2023-12-20T06:56:39;98529.13;;;5.90;100.00
55604;BME280;41468;48.838;9.330;2023-12-20T06:59:05;98528.47;;;5.93;100.00
55604;BME280;41468;48.838;9.330;2023-12-20T07:01:33;98530.91;;;5.86;100.00
55604;BME280;41468;48.838;9.330;2023-12-20T07:04:00;98539.84;;;5.86;100.00
55604;BME280;41468;48.838;9.330;2023-12-20T07:06:27;98535.50;;;5.94;100.00
55604;BME280;41468;48.838;9.330;2023-12-20T07:08:53;98541.38;;;5.96;100.00
55604;BME280;41468;48.838;9.330;2023-12-20T07:11:20;98548.91;;;6.11;100.00
55604;BME280;41468;48.838;9.330;2023-12-20T07:13:52;98546.59;;;6.01;100.00
55604;BME280;41468;48.838;9.330;2023-12-20T07:16:18;98545.50;;;6.02;100.00
55604;BME280;41468;48.838;9.330;2023-12-20T07:18:48;98557.44;;;6.01;100.00
55604;BME280;41468;48.838;9.330;2023-12-20T07:21:15;98557.91;;;6.03;100.00
55604;BME280;41468;48.838;9.330;2023-12-20T07:23:42;98555.66;;;6.05;100.00
55604;BME280;41468;48.838;9.330;2023-12-20T07:26:09;98555.00;;;6.08;100.00
55604;BME280;41468;48.838;9.330;2023-12-20T07:28:35;98564.84;;;6.13;100.00
55604;BME280;41468;48.838;9.330;2023-12-20T07:31:03;98574.16;;;6.03;100.00
55604;BME280;41468;48.838;9.330;2023-12-20T07:33:30;98574.06;;;6.00;100.00
55604;BME280;41468;48.838;9.330;2023-12-20T07:36:05;98573.38;;;6.03;100.00
55604;BME280;41468;48.838;9.330;2023-12-20T07:38:32;98580.72;;;6.02;100.00
55604;BME280;41468;48.838;9.330;2023-12-20T07:41:04;98581.03;;;6.22;100.00
55604;BME280;41468;48.838;9.330;2023-12-20T07:43:36;98581.16;;;6.46;100.00
55604;BME280;41468;48.838;9.330;2023-12-20T07:46:06;98576.31;;;6.31;100.00
55604;BME280;41468;48.838;9.330;2023-12-20T07:48:37;98578.66;;;6.20;100.00
55604;BME280;41468;48.838;9.330;2023-12-20T07:51:11;98589.06;;;5.97;100.00
55604;BME280;41468;48.838;9.330;2023-12-20T07:53:38;98587.91;;;5.98;100.00
55604;BME280;41468;48.838;9.330;2023-12-20T07:56:18;98591.47;;;5.90;100.00
55604;BME280;41468;48.838;9.330;2023-12-20T07:58:45;98594.47;;;5.88;100.00
55604;BME280;41468;48.838;9.330;2023-12-20T08:01:19;98594.41;;;5.76;100.00
55604;BME280;41468;48.838;9.330;2023-12-20T08:03:48;98596.88;;;5.90;100.00
55604;BME280;41468;48.838;9.330;2023-12-20T08:06:15;98597.34;;;5.92;100.00
55604;BME280;41468;48.838;9.330;2023-12-20T08:08:44;98597.31;;;6.01;100.00
55604;BME280;41468;48.838;9.330;2023-12-20T08:11:18;98598.31;;;5.87;100.00
55604;BME280;41468;48.838;9.330;2023-12-20T08:13:44;98605.47;;;5.92;100.00
55604;BME280;41468;48.838;9.330;2023-12-20T08:16:11;98606.41;;;5.96;100.00
55604;BME280;41468;48.838;9.330;2023-12-20T08:18:40;98608.50;;;5.90;100.00
55604;BME280;41468;48.838;9.330;2023-12-20T08:21:07;98598.31;;;5.87;100.00
55604;BME280;41468;48.838;9.330;2023-12-20T08:23:36;98609.50;;;5.86;100.00
55604;BME280;41468;48.838;9.330;2023-12-20T08:26:07;98615.25;;;5.84;100.00
55604;BME280;41468;48.838;9.330;2023-12-20T08:28:34;98611.47;;;5.76;100.00
55604;BME280;41468;48.838;9.330;2023-12-20T08:31:01;98618.19;;;5.70;100.00
55604;BME280;41468;48.838;9.330;2023-12-20T08:33:28;98619.47;;;5.73;100.00
55604;BME280;41468;48.838;9.330;2023-12-20T08:35:59;98622.66;;;5.75;100.00
55604;BME280;41468;48.838;9.330;2023-12-20T08:38:26;98634.66;;;5.65;100.00
55604;BME280;41468;48.838;9.330;2023-12-20T08:40:57;98631.31;;;5.60;100.00
55604;BME280;41468;48.838;9.330;2023-12-20T08:43:24;98623.03;;;5.65;100.00
55604;BME280;41468;48.838;9.330;2023-12-20T08:45:51;98632.78;;;5.57;100.00
55604;BME280;41468;48.838;9.330;2023-12-20T08:48:18;98643.19;;;5.46;100.00
55604;BME280;41468;48.838;9.330;2023-12-20T08:50:50;98646.69;;;5.47;100.00
55604;BME280;41468;48.838;9.330;2023-12-20T08:53:18;98647.25;;;5.61;100.00
55604;BME280;41468;48.838;9.330;2023-12-20T08:55:50;98643.31;;;5.80;100.00
55604;BME280;41468;48.838;9.330;2023-12-20T08:58:16;98639.91;;;6.21;100.00
55604;BME280;41468;48.838;9.330;2023-12-20T09:00:48;98625.47;;;6.50;100.00
55604;BME280;41468;48.838;9.330;2023-12-20T09:03:14;98626.47;;;6.79;100.00
55604;BME280;41468;48.838;9.330;2023-12-20T09:05:41;98631.75;;;6.96;99.11
55604;BME280;41468;48.838;9.330;2023-12-20T09:08:08;98621.47;;;7.14;99.55
55604;BME280;41468;48.838;9.330;2023-12-20T09:10:37;98617.66;;;7.40;97.42
55604;BME280;41468;48.838;9.330;2023-12-20T09:13:04;98610.66;;;7.51;95.32
55604;BME280;41468;48.838;9.330;2023-12-20T09:15:31;98607.81;;;7.60;93.83
55604;BME280;41468;48.838;9.330;2023-12-20T09:18:01;98608.84;;;7.55;92.54
55604;BME280;41468;48.838;9.330;2023-12-20T09:20:28;98615.03;;;7.68;92.62
55604;BME280;41468;48.838;9.330;2023-12-20T09:22:55;98616.41;;;7.86;92.52
55604;BME280;41468;48.838;9.330;2023-12-20T09:25:27;98621.81;;;7.99;91.18
55604;BME280;41468;48.838;9.330;2023-12-20T09:27:54;98617.31;;;7.90;87.43
55604;BME280;41468;48.838;9.330;2023-12-20T09:30:21;98619.66;;;7.92;91.38
55604;BME280;41468;48.838;9.330;2023-12-20T09:32:52;98615.22;;;8.12;89.13
55604;BME280;41468;48.838;9.330;2023-12-20T09:35:19;98616.81;;;8.13;89.62
55604;BME280;41468;48.838;9.330;2023-12-20T09:37:46;98628.69;;;8.21;88.68
55604;BME280;41468;48.838;9.330;2023-12-20T09:40:13;98629.00;;;8.31;86.98
55604;BME280;41468;48.838;9.330;2023-12-20T09:45:22;98625.13;;;7.80;87.95
55604;BME280;41468;48.838;9.330;2023-12-20T09:47:52;98630.59;;;7.55;90.49
55604;BME280;41468;48.838;9.330;2023-12-20T09:50:20;98634.28;;;7.38;91.61
55604;BME280;41468;48.838;9.330;2023-12-20T09:52:50;98633.38;;;7.22;93.00
55604;BME280;41468;48.838;9.330;2023-12-20T09:55:18;98639.75;;;6.93;91.33
55604;BME280;41468;48.838;9.330;2023-12-20T09:57:46;98639.34;;;6.70;91.07
55604;BME280;41468;48.838;9.330;2023-12-20T10:00:18;98632.53;;;6.63;92.06
55604;BME280;41468;48.838;9.330;2023-12-20T10:02:56;98632.75;;;6.58;91.39
55604;BME280;41468;48.838;9.330;2023-12-20T10:05:27;98624.44;;;6.43;90.61
55604;BME280;41468;48.838;9.330;2023-12-20T10:08:06;98636.25;;;6.38;92.05
55604;BME280;41468;48.838;9.330;2023-12-20T10:10:33;98632.63;;;6.34;90.49
55604;BME280;41468;48.838;9.330;2023-12-20T10:13:12;98634.88;;;6.32;87.31
55604;BME280;41468;48.838;9.330;2023-12-20T10:15:40;98627.63;;;6.24;89.29
55604;BME280;41468;48.838;9.330;2023-12-20T10:18:09;98624.56;;;6.25;88.59
55604;BME280;41468;48.838;9.330;2023-12-20T10:20:36;98628.91;;;6.17;89.79
55604;BME280;41468;48.838;9.330;2023-12-20T10:23:03;98621.13;;;6.16;84.74
55604;BME280;41468;48.838;9.330;2023-12-20T10:25:30;98624.63;;;6.16;88.85
55604;BME280;41468;48.838;9.330;2023-12-20T10:28:15;98623.56;;;6.09;86.26
55604;BME280;41468;48.838;9.330;2023-12-20T10:30:47;98619.97;;;5.96;84.73
55604;BME280;41468;48.838;9.330;2023-12-20T10:33:24;98612.13;;;6.03;86.93
55604;BME280;41468;48.838;9.330;2023-12-20T10:35:52;98605.84;;;6.11;88.60
55604;BME280;41468;48.838;9.330;2023-12-20T10:38:23;98612.66;;;6.17;88.31
55604;BME280;41468;48.838;9.330;2023-12-20T10:40:54;98610.13;;;6.12;82.97
55604;BME280;41468;48.838;9.330;2023-12-20T10:43:24;98613.38;;;6.06;86.38
55604;BME280;41468;48.838;9.330;2023-12-20T10:45:53;98605.91;;;6.03;85.89
55604;BME280;41468;48.838;9.330;2023-12-20T10:48:21;98614.63;;;6.08;87.06
55604;BME280;41468;48.838;9.330;2023-12-20T10:50:49;98606.50;;;6.08;84.66
55604;BME280;41468;48.838;9.330;2023-12-20T10:53:16;98603.13;;;6.11;84.59
55604;BME280;41468;48.838;9.330;2023-12-20T10:55:44;98604.47;;;6.26;85.42
55604;BME280;41468;48.838;9.330;2023-12-20T10:58:11;98607.09;;;6.14;84.99
55604;BME280;41468;48.838;9.330;2023-12-20T11:00:40;98598.97;;;6.14;85.45
55604;BME280;41468;48.838;9.330;2023-12-20T11:03:09;98599.75;;;6.14;86.93
55604;BME280;41468;48.838;9.330;2023-12-20T11:06:08;98598.66;;;6.15;83.40
55604;BME280;41468;48.838;9.330;2023-12-20T11:08:44;98590.84;;;6.14;84.49
55604;BME280;41468;48.838;9.330;2023-12-20T11:11:23;98587.94;;;6.19;83.80
55604;BME280;41468;48.838;9.330;2023-12-20T11:14:02;98587.19;;;6.31;82.90
55604;BME280;41468;48.838;9.330;2023-12-20T11:16:32;98591.88;;;6.43;82.13
55604;BME280;41468;48.838;9.330;2023-12-20T11:19:13;98592.00;;;6.46;79.80
55604;BME280;41468;48.838;9.330;2023-12-20T11:21:40;98597.88;;;6.48;82.61
55604;BME280;41468;48.838;9.330;2023-12-20T11:24:07;98591.72;;;6.39;78.53
55604;BME280;41468;48.838;9.330;2023-12-20T11:26:34;98595.13;;;6.36;80.04
55604;BME280;41468;48.838;9.330;2023-12-20T11:29:29;98585.91;;;6.28;79.19
55604;BME280;41468;48.838;9.330;2023-12-20T11:31:55;98584.47;;;6.31;78.77
55604;BME280;41468;48.838;9.330;2023-12-20T11:34:27;98588.97;;;6.27;78.95
55604;BME280;41468;48.838;9.330;2023-12-20T11:37:00;98585.47;;;6.26;82.82
55604;BME280;41468;48.838;9.330;2023-12-20T11:39:30;98579.38;;;6.29;83.46
55604;BME280;41468;48.838;9.330;2023-12-20T11:42:05;98586.59;;;6.25;81.29
55604;BME280;41468;48.838;9.330;2023-12-20T11:44:33;98587.84;;;6.28;82.40
55604;BME280;41468;48.838;9.330;2023-12-20T11:46:59;98594.13;;;6.19;81.95
55604;BME280;41468;48.838;9.330;2023-12-20T11:49:26;98597.19;;;6.18;82.94
55604;BME280;41468;48.838;9.330;2023-12-20T11:51:56;98590.38;;;6.12;82.43
55604;BME280;41468;48.838;9.330;2023-12-20T11:54:23;98596.66;;;6.04;81.57
55604;BME280;41468;48.838;9.330;2023-12-20T11:56:50;98583.09;;;6.04;82.49
55604;BME280;41468;48.838;9.330;2023-12-20T11:59:17;98590.56;;;6.07;84.43
55604;BME280;41468;48.838;9.330;2023-12-20T12:01:51;98579.13;;;6.01;82.94
55604;BME280;41468;48.838;9.330;2023-12-20T12:04:18;98578.81;;;6.03;79.30
55604;BME280;41468;48.838;9.330;2023-12-20T12:06:45;98581.25;;;5.95;80.64
55604;BME280;41468;48.838;9.330;2023-12-20T12:09:13;98584.16;;;6.11;82.17
55604;BME280;41468;48.838;9.330;2023-12-20T12:11:40;98572.84;;;6.09;81.99
55604;BME280;41468;48.838;9.330;2023-12-20T12:14:11;98569.03;;;6.10;82.19
55604;BME280;41468;48.838;9.330;2023-12-20T12:16:39;98570.09;;;6.18;81.70
55604;BME280;41468;48.838;9.330;2023-12-20T12:19:05;98565.44;;;6.18;81.47
55604;BME280;41468;48.838;9.330;2023-12-20T12:21:32;98559.34;;;6.22;82.16
55604;BME280;41468;48.838;9.330;2023-12-20T12:24:07;98564.09;;;6.25;79.98
55604;BME280;41468;48.838;9.330;2023-12-20T12:26:33;98552.78;;;6.23;78.68
55604;BME280;41468;48.838;9.330;2023-12-20T12:29:00;98547.63;;;6.30;80.13
55604;BME280;41468;48.838;9.330;2023-12-20T12:31:27;98556.75;;;6.25;76.66
55604;BME280;41468;48.838;9.330;2023-12-20T12:33:58;98557.44;;;6.22;78.73
55604;BME280;41468;48.838;9.330;2023-12-20T12:36:30;98549.69;;;6.33;81.14
55604;BME280;41468;48.838;9.330;2023-12-20T12:38:57;98548.47;;;6.43;81.26
55604;BME280;41468;48.838;9.330;2023-12-20T12:41:24;98546.56;;;6.43;76.75
55604;BME280;41468;48.838;9.330;2023-12-20T12:43:51;98551.41;;;6.50;78.55
55604;BME280;41468;48.838;9.330;2023-12-20T12:46:18;98554.19;;;6.62;78.78
55604;BME280;41468;48.838;9.330;2023-12-20T12:48:45;98550.91;;;6.69;78.54
55604;BME280;41468;48.838;9.330;2023-12-20T12:51:13;98545.28;;;6.74;78.12
55604;BME280;41468;48.838;9.330;2023-12-20T12:53:40;98547.31;;;6.77;79.72
55604;BME280;41468;48.838;9.330;2023-12-20T12:56:07;98546.41;;;6.73;78.54
55604;BME280;41468;48.838;9.330;2023-12-20T12:58:34;98546.41;;;6.73;80.24
55604;BME280;41468;48.838;9.330;2023-12-20T13:01:01;98548.97;;;6.57;78.48
55604;BME280;41468;48.838;9.330;2023-12-20T13:03:30;98546.94;;;6.54;79.19
55604;BME280;41468;48.838;9.330;2023-12-20T13:05:57;98544.31;;;6.45;79.58
55604;BME280;41468;48.838;9.330;2023-12-20T13:08:24;98548.59;;;6.46;81.29
55604;BME280;41468;48.838;9.330;2023-12-20T13:10:50;98556.28;;;6.44;80.10
55604;BME280;41468;48.838;9.330;2023-12-20T13:13:17;98554.81;;;6.47;79.81